sensor_id;sensor_type;location;lat;lon;timestamp;temperature;humidity
4651;DHT22;2338;49.602;8.722;2022-12-20T00:01:34;2.50;99.90
4651;DHT22;2338;49.602;8.722;2022-12-20T00:04:21;2.60;99.90
4651;DHT22;2338;49.602;8.722;2022-12-20T00:07:06;2.60;99.90
4651;DHT22;2338;49.602;8.722;2022-12-20T00:09:52;2.70;99.90
4651;DHT22;2338;49.602;8.722;2022-12-20T00:12:38;2.70;99.90
4651;DHT22;2338;49.602;8.722;2022-12-20T00:15:23;2.80;99.90
4651;DHT22;2338;49.602;8.722;2022-12-20T00:18:09;2.70;99.90
4651;DHT22;2338;49.602;8.722;2022-12-20T00:20:58;2.80;99.90
4651;DHT22;2338;49.602;8.722;2022-12-20T00:23:44;2.60;99.90
4651;DHT22;2338;49.602;8.722;2022-12-20T00:26:31;2.60;99.90
4651;DHT22;2338;49.602;8.722;2022-12-20T00:29:17;2.60;99.90
4651;DHT22;2338;49.602;8.722;2022-12-20T00:32:03;2.60;99.90
4651;DHT22;2338;49.602;8.722;2022-12-20T00:34:48;2.60;99.90
4651;DHT22;2338;49.602;8.722;2022-12-20T00:37:35;2.60;99.90
4651;DHT22;2338;49.602;8.722;2022-12-20T00:40:21;2.70;99.90
4651;DHT22;2338;49.602;8.722;2022-12-20T00:43:07;2.80;99.90
4651;DHT22;2338;49.602;8.722;2022-12-20T00:45:52;2.80;99.90
4651;DHT22;2338;49.602;8.722;2022-12-20T00:48:38;2.80;99.90
4651;DHT22;2338;49.602;8.722;2022-12-20T00:51:26;2.80;99.90
4651;DHT22;2338;49.602;8.722;2022-12-20T00:54:14;2.80;99.90
4651;DHT22;2338;49.602;8.722;2022-12-20T00:56:59;2.80;99.90
4651;DHT22;2338;49.602;8.722;2022-12-20T00:59:45;2.80;99.90
4651;DHT22;2338;49.602;8.722;2022-12-20T01:02:31;2.80;99.90
4651;DHT22;2338;49.602;8.722;2022-12-20T01:05:16;2.80;99.90
4651;DHT22;2338;49.602;8.722;2022-12-20T01:08:05;2.90;99.90
4651;DHT22;2338;49.602;8.722;2022-12-20T01:10:59;2.90;99.90
4651;DHT22;2338;49.602;8.722;2022-12-20T01:13:47;2.90;99.90
4651;DHT22;2338;49.602;8.722;2022-12-20T01:16:35;3.00;99.90
4651;DHT22;2338;49.602;8.722;2022-12-20T01:19:21;2.90;99.90
4651;DHT22;2338;49.602;8.722;2022-12-20T01:22:07;2.90;99.90
4651;DHT22;2338;49.602;8.722;2022-12-20T01:24:52;2.90;99.90
4651;DHT22;2338;49.602;8.722;2022-12-20T01:27:39;2.90;99.90
4651;DHT22;2338;49.602;8.722;2022-12-20T01:30:25;2.90;99.90
4651;DHT22;2338;49.602;8.722;2022-12-20T01:33:10;2.90;99.90
4651;DHT22;2338;49.602;8.722;2022-12-20T01:35:58;2.90;99.90
4651;DHT22;2338;49.602;8.722;2022-12-20T01:38:44;2.80;99.90
4651;DHT22;2338;49.602;8.722;2022-12-20T01:41:31;2.80;99.90
4651;DHT22;2338;49.602;8.722;2022-12-20T01:44:53;2.80;99.90
4651;DHT22;2338;49.602;8.722;2022-12-20T01:47:39;2.80;99.90
4651;DHT22;2338;49.602;8.722;2022-12-20T01:50:25;2.90;99.90
4651;DHT22;2338;49.602;8.722;2022-12-20T01:53:11;2.90;99.90
4651;DHT22;2338;49.602;8.722;2022-12-20T01:55:58;2.90;99.90
4651;DHT22;2338;49.602;8.722;2022-12-20T01:58:47;2.90;99.90
4651;DHT22;2338;49.602;8.722;2022-12-20T02:01:37;3.00;99.90
4651;DHT22;2338;49.602;8.722;2022-12-20T02:04:23;2.90;99.90
4651;DHT22;2338;49.602;8.722;2022-12-20T02:07:11;2.90;99.90
4651;DHT22;2338;49.602;8.722;2022-12-20T02:09:57;2.90;99.90
4651;DHT22;2338;49.602;8.722;2022-12-20T02:12:44;2.90;99.90
4651;DHT22;2338;49.602;8.722;2022-12-20T02:15:37;2.80;99.90
4651;DHT22;2338;49.602;8.722;2022-12-20T02:18:29;2.70;99.90
4651;DHT22;2338;49.602;8.722;2022-12-20T02:21:25;2.80;99.90
4651;DHT22;2338;49.602;8.722;2022-12-20T02:24:58;2.80;99.90
4651;DHT22;2338;49.602;8.722;2022-12-20T02:27:59;2.90;99.90
4651;DHT22;2338;49.602;8.722;2022-12-20T02:30:50;2.90;99.90
4651;DHT22;2338;49.602;8.722;2022-12-20T02:33:38;2.80;99.90
4651;DHT22;2338;49.602;8.722;2022-12-20T02:36:26;2.90;99.90
4651;DHT22;2338;49.602;8.722;2022-12-20T02:39:12;3.00;99.90
4651;DHT22;2338;49.602;8.722;2022-12-20T02:42:03;3.10;99.90
4651;DHT22;2338;49.602;8.722;2022-12-20T02:44:52;3.00;99.90
4651;DHT22;2338;49.602;8.722;2022-12-20T02:48:00;2.90;99.90
4651;DHT22;2338;49.602;8.722;2022-12-20T02:50:50;3.00;99.90
4651;DHT22;2338;49.602;8.722;2022-12-20T02:53:38;2.90;99.90
4651;DHT22;2338;49.602;8.722;2022-12-20T02:56:28;2.90;99.90
4651;DHT22;2338;49.602;8.722;2022-12-20T02:59:20;3.00;99.90
4651;DHT22;2338;49.602;8.722;2022-12-20T03:02:07;2.90;99.90
4651;DHT22;2338;49.602;8.722;2022-12-20T03:04:56;2.90;99.90
4651;DHT22;2338;49.602;8.722;2022-12-20T03:07:42;2.90;99.90
4651;DHT22;2338;49.602;8.722;2022-12-20T03:10:28;3.00;99.90
4651;DHT22;2338;49.602;8.722;2022-12-20T03:13:14;3.00;99.90
4651;DHT22;2338;49.602;8.722;2022-12-20T03:15:59;3.10;99.90
4651;DHT22;2338;49.602;8.722;2022-12-20T03:18:45;3.10;99.90
4651;DHT22;2338;49.602;8.722;2022-12-20T03:21:32;3.00;99.90
4651;DHT22;2338;49.602;8.722;2022-12-20T03:24:18;3.00;99.90
4651;DHT22;2338;49.602;8.722;2022-12-20T03:27:03;3.10;99.90
4651;DHT22;2338;49.602;8.722;2022-12-20T03:29:49;3.10;99.90
4651;DHT22;2338;49.602;8.722;2022-12-20T03:32:34;3.00;99.90
4651;DHT22;2338;49.602;8.722;2022-12-20T03:35:20;3.10;99.90
4651;DHT22;2338;49.602;8.722;2022-12-20T03:38:07;3.00;99.90
4651;DHT22;2338;49.602;8.722;2022-12-20T03:40:53;3.10;99.90
4651;DHT22;2338;49.602;8.722;2022-12-20T03:43:38;3.10;99.90
4651;DHT22;2338;49.602;8.722;2022-12-20T03:46:24;3.10;99.90
4651;DHT22;2338;49.602;8.722;2022-12-20T03:49:10;3.10;99.90
4651;DHT22;2338;49.602;8.722;2022-12-20T03:51:56;3.10;99.90
4651;DHT22;2338;49.602;8.722;2022-12-20T03:54:43;3.00;99.90
4651;DHT22;2338;49.602;8.722;2022-12-20T03:57:29;3.10;99.90
4651;DHT22;2338;49.602;8.722;2022-12-20T04:00:15;3.10;99.90
4651;DHT22;2338;49.602;8.722;2022-12-20T04:03:01;3.10;99.90
4651;DHT22;2338;49.602;8.722;2022-12-20T04:05:47;3.10;99.90
4651;DHT22;2338;49.602;8.722;2022-12-20T04:08:33;3.10;99.90
4651;DHT22;2338;49.602;8.722;2022-12-20T04:11:20;3.10;99.90
4651;DHT22;2338;49.602;8.722;2022-12-20T04:14:06;3.00;99.90
4651;DHT22;2338;49.602;8.722;2022-12-20T04:16:52;3.10;99.90
4651;DHT22;2338;49.602;8.722;2022-12-20T04:19:37;3.10;99.90
4651;DHT22;2338;49.602;8.722;2022-12-20T04:22:23;3.10;99.90
4651;DHT22;2338;49.602;8.722;2022-12-20T04:25:09;3.20;99.90
4651;DHT22;2338;49.602;8.722;2022-12-20T04:27:56;3.20;99.90
4651;DHT22;2338;49.602;8.722;2022-12-20T04:30:41;3.20;99.90
4651;DHT22;2338;49.602;8.722;2022-12-20T04:33:28;3.20;99.90
4651;DHT22;2338;49.602;8.722;2022-12-20T04:36:13;3.20;99.90
4651;DHT22;2338;49.602;8.722;2022-12-20T04:38:59;3.20;99.90
4651;DHT22;2338;49.602;8.722;2022-12-20T04:41:45;3.20;99.90
4651;DHT22;2338;49.602;8.722;2022-12-20T04:44:32;3.20;99.90
4651;DHT22;2338;49.602;8.722;2022-12-20T04:47:17;3.10;99.90
4651;DHT22;2338;49.602;8.722;2022-12-20T04:50:04;3.10;99.90
4651;DHT22;2338;49.602;8.722;2022-12-20T04:52:50;3.10;99.90
4651;DHT22;2338;49.602;8.722;2022-12-20T04:55:55;3.20;99.90
4651;DHT22;2338;49.602;8.722;2022-12-20T04:58:41;3.30;99.90
4651;DHT22;2338;49.602;8.722;2022-12-20T05:01:28;3.30;99.90
4651;DHT22;2338;49.602;8.722;2022-12-20T05:04:14;3.30;99.90
4651;DHT22;2338;49.602;8.722;2022-12-20T05:07:00;3.20;99.90
4651;DHT22;2338;49.602;8.722;2022-12-20T05:09:45;3.20;99.90
4651;DHT22;2338;49.602;8.722;2022-12-20T05:12:31;3.30;99.90
4651;DHT22;2338;49.602;8.722;2022-12-20T05:15:17;3.30;99.90
4651;DHT22;2338;49.602;8.722;2022-12-20T05:18:04;3.30;99.90
4651;DHT22;2338;49.602;8.722;2022-12-20T05:20:50;3.20;99.90
4651;DHT22;2338;49.602;8.722;2022-12-20T05:23:55;3.20;99.90
4651;DHT22;2338;49.602;8.722;2022-12-20T05:26:58;3.30;99.90
4651;DHT22;2338;49.602;8.722;2022-12-20T05:29:44;3.30;99.90
4651;DHT22;2338;49.602;8.722;2022-12-20T05:32:29;3.30;99.90
4651;DHT22;2338;49.602;8.722;2022-12-20T05:35:16;3.30;99.90
4651;DHT22;2338;49.602;8.722;2022-12-20T05:38:02;3.30;99.90
4651;DHT22;2338;49.602;8.722;2022-12-20T05:40:49;3.30;99.90
4651;DHT22;2338;49.602;8.722;2022-12-20T05:43:34;3.40;99.90
4651;DHT22;2338;49.602;8.722;2022-12-20T05:46:20;3.40;99.90
4651;DHT22;2338;49.602;8.722;2022-12-20T05:49:05;3.40;99.90
4651;DHT22;2338;49.602;8.722;2022-12-20T05:51:52;3.40;99.90
4651;DHT22;2338;49.602;8.722;2022-12-20T05:54:38;3.40;99.90
4651;DHT22;2338;49.602;8.722;2022-12-20T05:57:24;3.40;99.90
4651;DHT22;2338;49.602;8.722;2022-12-20T06:00:10;3.40;99.90
4651;DHT22;2338;49.602;8.722;2022-12-20T06:02:56;3.40;99.90
4651;DHT22;2338;49.602;8.722;2022-12-20T06:05:42;3.40;99.90
4651;DHT22;2338;49.602;8.722;2022-12-20T06:08:29;3.50;99.90
4651;DHT22;2338;49.602;8.722;2022-12-20T06:11:15;3.50;99.90
4651;DHT22;2338;49.602;8.722;2022-12-20T06:14:00;3.50;99.90
4651;DHT22;2338;49.602;8.722;2022-12-20T06:16:46;3.40;99.90
4651;DHT22;2338;49.602;8.722;2022-12-20T06:19:32;3.40;99.90
4651;DHT22;2338;49.602;8.722;2022-12-20T06:22:17;3.40;99.90
4651;DHT22;2338;49.602;8.722;2022-12-20T06:25:05;3.50;99.90
4651;DHT22;2338;49.602;8.722;2022-12-20T06:27:52;3.50;99.90
4651;DHT22;2338;49.602;8.722;2022-12-20T06:30:38;3.50;99.90
4651;DHT22;2338;49.602;8.722;2022-12-20T06:33:24;3.30;99.90
4651;DHT22;2338;49.602;8.722;2022-12-20T06:36:10;3.30;99.90
4651;DHT22;2338;49.602;8.722;2022-12-20T06:38:56;3.40;99.90
4651;DHT22;2338;49.602;8.722;2022-12-20T06:41:43;3.50;99.90
4651;DHT22;2338;49.602;8.722;2022-12-20T06:44:28;3.50;99.90
4651;DHT22;2338;49.602;8.722;2022-12-20T06:47:14;3.50;99.90
4651;DHT22;2338;49.602;8.722;2022-12-20T06:49:59;3.50;99.90
4651;DHT22;2338;49.602;8.722;2022-12-20T06:52:45;3.50;99.90
4651;DHT22;2338;49.602;8.722;2022-12-20T06:55:31;3.50;99.90
4651;DHT22;2338;49.602;8.722;2022-12-20T06:58:18;3.50;99.90
4651;DHT22;2338;49.602;8.722;2022-12-20T07:01:04;3.50;99.90
4651;DHT22;2338;49.602;8.722;2022-12-20T07:03:50;3.60;99.90
4651;DHT22;2338;49.602;8.722;2022-12-20T07:06:36;3.60;99.90
4651;DHT22;2338;49.602;8.722;2022-12-20T07:09:22;3.60;99.90
4651;DHT22;2338;49.602;8.722;2022-12-20T07:12:08;3.60;99.90
4651;DHT22;2338;49.602;8.722;2022-12-20T07:14:55;3.60;99.90
4651;DHT22;2338;49.602;8.722;2022-12-20T07:17:41;3.60;99.90
4651;DHT22;2338;49.602;8.722;2022-12-20T07:20:26;3.60;99.90
4651;DHT22;2338;49.602;8.722;2022-12-20T07:23:12;3.60;99.90
4651;DHT22;2338;49.602;8.722;2022-12-20T07:25:59;3.70;99.90
4651;DHT22;2338;49.602;8.722;2022-12-20T07:28:46;3.60;99.90
4651;DHT22;2338;49.602;8.722;2022-12-20T07:31:33;3.60;99.90
4651;DHT22;2338;49.602;8.722;2022-12-20T07:34:19;3.70;99.90
4651;DHT22;2338;49.602;8.722;2022-12-20T07:37:05;3.70;99.90
4651;DHT22;2338;49.602;8.722;2022-12-20T07:39:52;3.70;99.90
4651;DHT22;2338;49.602;8.722;2022-12-20T07:42:39;3.70;99.90
4651;DHT22;2338;49.602;8.722;2022-12-20T07:45:24;3.70;99.90
4651;DHT22;2338;49.602;8.722;2022-12-20T07:48:11;3.70;99.90
4651;DHT22;2338;49.602;8.722;2022-12-20T07:50:59;3.70;99.90
4651;DHT22;2338;49.602;8.722;2022-12-20T07:53:48;3.70;99.90
4651;DHT22;2338;49.602;8.722;2022-12-20T07:56:37;3.80;99.90
4651;DHT22;2338;49.602;8.722;2022-12-20T07:59:27;3.70;99.90
4651;DHT22;2338;49.602;8.722;2022-12-20T08:02:15;3.80;99.90
4651;DHT22;2338;49.602;8.722;2022-12-20T08:05:05;3.90;99.90
4651;DHT22;2338;49.602;8.722;2022-12-20T08:07:53;3.80;99.90
4651;DHT22;2338;49.602;8.722;2022-12-20T08:10:40;3.80;99.90
4651;DHT22;2338;49.602;8.722;2022-12-20T08:13:26;3.80;99.90
4651;DHT22;2338;49.602;8.722;2022-12-20T08:16:12;3.90;99.90
4651;DHT22;2338;49.602;8.722;2022-12-20T08:18:58;3.90;99.90
4651;DHT22;2338;49.602;8.722;2022-12-20T08:21:45;3.80;99.90
4651;DHT22;2338;49.602;8.722;2022-12-20T08:24:32;3.80;99.90
4651;DHT22;2338;49.602;8.722;2022-12-20T08:27:18;3.90;99.90
4651;DHT22;2338;49.602;8.722;2022-12-20T08:30:05;3.80;99.90
4651;DHT22;2338;49.602;8.722;2022-12-20T08:32:51;3.80;99.90
4651;DHT22;2338;49.602;8.722;2022-12-20T08:35:37;3.90;99.90
4651;DHT22;2338;49.602;8.722;2022-12-20T08:38:25;4.00;99.90
4651;DHT22;2338;49.602;8.722;2022-12-20T08:41:11;3.90;99.90
4651;DHT22;2338;49.602;8.722;2022-12-20T08:43:57;3.90;99.90
4651;DHT22;2338;49.602;8.722;2022-12-20T08:46:43;4.00;99.90
4651;DHT22;2338;49.602;8.722;2022-12-20T08:49:29;4.10;99.90
4651;DHT22;2338;49.602;8.722;2022-12-20T08:52:14;4.20;99.90
4651;DHT22;2338;49.602;8.722;2022-12-20T08:55:01;4.20;99.90
4651;DHT22;2338;49.602;8.722;2022-12-20T08:57:47;4.30;99.90
4651;DHT22;2338;49.602;8.722;2022-12-20T09:00:32;4.40;99.90
4651;DHT22;2338;49.602;8.722;2022-12-20T09:03:18;4.50;99.90
4651;DHT22;2338;49.602;8.722;2022-12-20T09:06:05;4.50;99.90
4651;DHT22;2338;49.602;8.722;2022-12-20T09:08:51;4.70;99.90
4651;DHT22;2338;49.602;8.722;2022-12-20T09:11:39;4.80;99.90
4651;DHT22;2338;49.602;8.722;2022-12-20T09:14:25;4.80;99.90
4651;DHT22;2338;49.602;8.722;2022-12-20T09:17:10;4.90;99.90
4651;DHT22;2338;49.602;8.722;2022-12-20T09:19:56;5.00;99.90
4651;DHT22;2338;49.602;8.722;2022-12-20T09:22:42;4.90;99.90
4651;DHT22;2338;49.602;8.722;2022-12-20T09:25:28;5.00;99.90
4651;DHT22;2338;49.602;8.722;2022-12-20T09:28:15;5.00;99.90
4651;DHT22;2338;49.602;8.722;2022-12-20T09:31:02;5.20;99.90
4651;DHT22;2338;49.602;8.722;2022-12-20T09:33:48;5.20;99.90
4651;DHT22;2338;49.602;8.722;2022-12-20T09:36:34;5.30;99.90
4651;DHT22;2338;49.602;8.722;2022-12-20T09:39:20;5.30;99.90
4651;DHT22;2338;49.602;8.722;2022-12-20T09:42:06;5.40;99.90
4651;DHT22;2338;49.602;8.722;2022-12-20T09:45:00;5.50;99.90
4651;DHT22;2338;49.602;8.722;2022-12-20T09:47:47;5.60;99.90
4651;DHT22;2338;49.602;8.722;2022-12-20T09:50:42;5.60;99.90
4651;DHT22;2338;49.602;8.722;2022-12-20T09:53:36;5.70;99.90
4651;DHT22;2338;49.602;8.722;2022-12-20T09:56:27;5.70;99.90
4651;DHT22;2338;49.602;8.722;2022-12-20T09:59:17;5.80;99.90
4651;DHT22;2338;49.602;8.722;2022-12-20T10:02:09;5.90;99.90
4651;DHT22;2338;49.602;8.722;2022-12-20T10:04:56;5.90;99.90
4651;DHT22;2338;49.602;8.722;2022-12-20T10:07:48;6.00;99.90
4651;DHT22;2338;49.602;8.722;2022-12-20T10:10:44;6.10;99.90
4651;DHT22;2338;49.602;8.722;2022-12-20T10:13:44;6.10;99.90
4651;DHT22;2338;49.602;8.722;2022-12-20T10:16:39;6.10;99.90
4651;DHT22;2338;49.602;8.722;2022-12-20T10:19:45;6.20;99.90
4651;DHT22;2338;49.602;8.722;2022-12-20T10:22:37;6.20;99.90
4651;DHT22;2338;49.602;8.722;2022-12-20T10:25:29;6.20;99.90
4651;DHT22;2338;49.602;8.722;2022-12-20T10:28:16;6.30;99.90
4651;DHT22;2338;49.602;8.722;2022-12-20T10:31:03;6.40;99.90
4651;DHT22;2338;49.602;8.722;2022-12-20T10:33:49;6.50;99.90
4651;DHT22;2338;49.602;8.722;2022-12-20T10:36:36;6.50;99.90
4651;DHT22;2338;49.602;8.722;2022-12-20T10:39:39;6.50;99.90
4651;DHT22;2338;49.602;8.722;2022-12-20T10:42:33;6.60;99.90
4651;DHT22;2338;49.602;8.722;2022-12-20T10:45:28;6.70;99.90
4651;DHT22;2338;49.602;8.722;2022-12-20T10:48:27;7.30;99.90
4651;DHT22;2338;49.602;8.722;2022-12-20T10:51:15;7.70;99.90
4651;DHT22;2338;49.602;8.722;2022-12-20T10:54:11;7.90;99.90
4651;DHT22;2338;49.602;8.722;2022-12-20T10:57:16;8.10;99.90
4651;DHT22;2338;49.602;8.722;2022-12-20T11:00:05;8.10;99.90
4651;DHT22;2338;49.602;8.722;2022-12-20T11:03:03;8.10;99.90
4651;DHT22;2338;49.602;8.722;2022-12-20T11:05:55;8.00;99.90
4651;DHT22;2338;49.602;8.722;2022-12-20T11:08:42;7.90;99.90
4651;DHT22;2338;49.602;8.722;2022-12-20T11:11:29;7.80;99.90
4651;DHT22;2338;49.602;8.722;2022-12-20T11:14:14;7.70;99.90
4651;DHT22;2338;49.602;8.722;2022-12-20T11:17:04;7.70;99.90
4651;DHT22;2338;49.602;8.722;2022-12-20T11:20:06;7.70;99.90
4651;DHT22;2338;49.602;8.722;2022-12-20T11:23:05;7.60;99.90
4651;DHT22;2338;49.602;8.722;2022-12-20T11:26:07;7.60;99.90
4651;DHT22;2338;49.602;8.722;2022-12-20T11:29:10;7.50;99.90
4651;DHT22;2338;49.602;8.722;2022-12-20T11:32:05;7.50;99.90
4651;DHT22;2338;49.602;8.722;2022-12-20T11:34:59;7.50;99.90
4651;DHT22;2338;49.602;8.722;2022-12-20T11:37:54;7.50;99.90
4651;DHT22;2338;49.602;8.722;2022-12-20T11:40:48;7.50;99.90
4651;DHT22;2338;49.602;8.722;2022-12-20T11:43:54;7.40;99.90
4651;DHT22;2338;49.602;8.722;2022-12-20T11:46:57;7.40;99.90
4651;DHT22;2338;49.602;8.722;2022-12-20T11:50:13;7.40;99.90
4651;DHT22;2338;49.602;8.722;2022-12-20T11:53:04;7.50;99.90
4651;DHT22;2338;49.602;8.722;2022-12-20T11:55:53;7.50;99.90
4651;DHT22;2338;49.602;8.722;2022-12-20T11:58:49;7.60;99.90
4651;DHT22;2338;49.602;8.722;2022-12-20T12:01:39;7.60;99.90
4651;DHT22;2338;49.602;8.722;2022-12-20T12:04:31;7.60;99.90
4651;DHT22;2338;49.602;8.722;2022-12-20T12:07:20;7.60;99.90
4651;DHT22;2338;49.602;8.722;2022-12-20T12:10:14;7.70;99.90
4651;DHT22;2338;49.602;8.722;2022-12-20T12:13:05;8.00;99.90
4651;DHT22;2338;49.602;8.722;2022-12-20T12:16:00;8.20;99.90
4651;DHT22;2338;49.602;8.722;2022-12-20T12:18:46;8.20;99.90
4651;DHT22;2338;49.602;8.722;2022-12-20T12:21:37;8.20;99.90
4651;DHT22;2338;49.602;8.722;2022-12-20T12:24:28;8.20;99.90
4651;DHT22;2338;49.602;8.722;2022-12-20T12:27:21;8.20;99.90
4651;DHT22;2338;49.602;8.722;2022-12-20T12:30:12;8.30;99.90
4651;DHT22;2338;49.602;8.722;2022-12-20T12:33:01;8.30;99.90
4651;DHT22;2338;49.602;8.722;2022-12-20T12:36:02;8.30;99.90
4651;DHT22;2338;49.602;8.722;2022-12-20T12:39:12;8.40;99.90
4651;DHT22;2338;49.602;8.722;2022-12-20T12:42:29;8.30;99.90
4651;DHT22;2338;49.602;8.722;2022-12-20T12:45:21;8.40;99.90
4651;DHT22;2338;49.602;8.722;2022-12-20T12:48:14;8.40;99.90
4651;DHT22;2338;49.602;8.722;2022-12-20T12:51:02;8.40;99.90
4651;DHT22;2338;49.602;8.722;2022-12-20T12:53:51;8.40;99.90
4651;DHT22;2338;49.602;8.722;2022-12-20T12:56:40;8.60;99.90
4651;DHT22;2338;49.602;8.722;2022-12-20T12:59:47;8.70;99.90
4651;DHT22;2338;49.602;8.722;2022-12-20T13:02:48;8.80;99.90
4651;DHT22;2338;49.602;8.722;2022-12-20T13:05:35;8.90;99.90
4651;DHT22;2338;49.602;8.722;2022-12-20T13:08:46;9.00;99.90
4651;DHT22;2338;49.602;8.722;2022-12-20T13:11:33;9.00;99.90
4651;DHT22;2338;49.602;8.722;2022-12-20T13:14:48;9.00;99.90
4651;DHT22;2338;49.602;8.722;2022-12-20T13:17:47;9.10;99.90
4651;DHT22;2338;49.602;8.722;2022-12-20T13:20:35;9.10;99.90
4651;DHT22;2338;49.602;8.722;2022-12-20T13:23:21;9.10;99.90
4651;DHT22;2338;49.602;8.722;2022-12-20T13:26:42;9.00;99.90
4651;DHT22;2338;49.602;8.722;2022-12-20T13:29:34;9.00;99.90
4651;DHT22;2338;49.602;8.722;2022-12-20T13:33:01;9.00;99.90
4651;DHT22;2338;49.602;8.722;2022-12-20T13:35:56;9.00;99.90
4651;DHT22;2338;49.602;8.722;2022-12-20T13:38:51;9.00;99.90
4651;DHT22;2338;49.602;8.722;2022-12-20T13:41:40;9.00;99.90
4651;DHT22;2338;49.602;8.722;2022-12-20T13:44:35;8.90;99.90
4651;DHT22;2338;49.602;8.722;2022-12-20T13:47:39;8.90;99.90
4651;DHT22;2338;49.602;8.722;2022-12-20T13:50:31;8.90;99.90
4651;DHT22;2338;49.602;8.722;2022-12-20T13:53:20;8.90;99.90
4651;DHT22;2338;49.602;8.722;2022-12-20T13:59:26;8.80;99.90
4651;DHT22;2338;49.602;8.722;2022-12-20T14:02:19;8.80;99.90
4651;DHT22;2338;49.602;8.722;2022-12-20T14:05:12;8.80;99.90
4651;DHT22;2338;49.602;8.722;2022-12-20T14:08:02;8.70;99.90
4651;DHT22;2338;49.602;8.722;2022-12-20T14:10:51;8.70;99.90
4651;DHT22;2338;49.602;8.722;2022-12-20T14:13:37;8.60;99.90
4651;DHT22;2338;49.602;8.722;2022-12-20T14:16:24;8.60;99.90
4651;DHT22;2338;49.602;8.722;2022-12-20T14:19:13;8.50;99.90
4651;DHT22;2338;49.602;8.722;2022-12-20T14:21:59;8.50;99.90
4651;DHT22;2338;49.602;8.722;2022-12-20T14:24:46;8.40;99.90
4651;DHT22;2338;49.602;8.722;2022-12-20T14:27:35;8.40;99.90
4651;DHT22;2338;49.602;8.722;2022-12-20T14:30:30;8.40;99.90
4651;DHT22;2338;49.602;8.722;2022-12-20T14:33:21;8.30;99.90
4651;DHT22;2338;49.602;8.722;2022-12-20T14:36:09;8.20;99.90
4651;DHT22;2338;49.602;8.722;2022-12-20T14:38:55;8.20;99.90
4651;DHT22;2338;49.602;8.722;2022-12-20T14:41:44;8.30;99.90
4651;DHT22;2338;49.602;8.722;2022-12-20T14:44:30;8.20;99.90
4651;DHT22;2338;49.602;8.722;2022-12-20T14:47:20;8.20;99.90
4651;DHT22;2338;49.602;8.722;2022-12-20T14:50:17;8.20;99.90
4651;DHT22;2338;49.602;8.722;2022-12-20T14:53:14;8.10;99.90
4651;DHT22;2338;49.602;8.722;2022-12-20T14:56:01;8.10;99.90
4651;DHT22;2338;49.602;8.722;2022-12-20T14:59:00;8.00;99.90
4651;DHT22;2338;49.602;8.722;2022-12-20T15:01:47;8.00;99.90
4651;DHT22;2338;49.602;8.722;2022-12-20T15:04:34;7.80;99.90
4651;DHT22;2338;49.602;8.722;2022-12-20T15:07:28;7.80;99.90
4651;DHT22;2338;49.602;8.722;2022-12-20T15:10:14;7.70;99.90
4651;DHT22;2338;49.602;8.722;2022-12-20T15:13:00;7.60;99.90
4651;DHT22;2338;49.602;8.722;2022-12-20T15:15:47;7.60;99.90
4651;DHT22;2338;49.602;8.722;2022-12-20T15:18:33;7.60;99.90
4651;DHT22;2338;49.602;8.722;2022-12-20T15:21:24;7.40;99.90
4651;DHT22;2338;49.602;8.722;2022-12-20T15:24:13;7.30;99.90
4651;DHT22;2338;49.602;8.722;2022-12-20T15:26:59;7.30;99.90
4651;DHT22;2338;49.602;8.722;2022-12-20T15:29:45;7.30;99.90
4651;DHT22;2338;49.602;8.722;2022-12-20T15:32:32;7.20;99.90
4651;DHT22;2338;49.602;8.722;2022-12-20T15:35:18;7.20;99.90
4651;DHT22;2338;49.602;8.722;2022-12-20T15:38:04;7.20;99.90
4651;DHT22;2338;49.602;8.722;2022-12-20T15:40:51;7.20;99.90
4651;DHT22;2338;49.602;8.722;2022-12-20T15:43:38;7.20;99.90
4651;DHT22;2338;49.602;8.722;2022-12-20T15:46:23;7.20;99.90
4651;DHT22;2338;49.602;8.722;2022-12-20T15:49:14;7.20;99.90
4651;DHT22;2338;49.602;8.722;2022-12-20T15:52:00;7.20;99.90
4651;DHT22;2338;49.602;8.722;2022-12-20T15:54:46;7.20;99.90
4651;DHT22;2338;49.602;8.722;2022-12-20T15:57:31;7.10;99.90
4651;DHT22;2338;49.602;8.722;2022-12-20T16:00:18;7.00;99.90
4651;DHT22;2338;49.602;8.722;2022-12-20T16:03:04;7.00;99.90
4651;DHT22;2338;49.602;8.722;2022-12-20T16:05:51;7.00;99.90
4651;DHT22;2338;49.602;8.722;2022-12-20T16:08:37;7.00;99.90
4651;DHT22;2338;49.602;8.722;2022-12-20T16:11:24;7.00;99.90
4651;DHT22;2338;49.602;8.722;2022-12-20T16:14:13;7.00;99.90
4651;DHT22;2338;49.602;8.722;2022-12-20T16:16:59;6.90;99.90
4651;DHT22;2338;49.602;8.722;2022-12-20T16:19:45;6.90;99.90
4651;DHT22;2338;49.602;8.722;2022-12-20T16:22:32;6.90;99.90
4651;DHT22;2338;49.602;8.722;2022-12-20T16:25:26;6.90;99.90
4651;DHT22;2338;49.602;8.722;2022-12-20T16:28:12;6.90;99.90
4651;DHT22;2338;49.602;8.722;2022-12-20T16:30:57;6.90;99.90
4651;DHT22;2338;49.602;8.722;2022-12-20T16:33:43;6.80;99.90
4651;DHT22;2338;49.602;8.722;2022-12-20T16:36:29;6.80;99.90
4651;DHT22;2338;49.602;8.722;2022-12-20T16:39:16;6.90;99.90
4651;DHT22;2338;49.602;8.722;2022-12-20T16:42:01;6.90;99.90
4651;DHT22;2338;49.602;8.722;2022-12-20T16:44:50;6.90;99.90
4651;DHT22;2338;49.602;8.722;2022-12-20T16:47:36;6.80;99.90
4651;DHT22;2338;49.602;8.722;2022-12-20T16:50:25;6.90;99.90
4651;DHT22;2338;49.602;8.722;2022-12-20T16:53:12;6.90;99.90
4651;DHT22;2338;49.602;8.722;2022-12-20T16:56:00;7.00;99.90
4651;DHT22;2338;49.602;8.722;2022-12-20T16:58:46;6.90;99.90
4651;DHT22;2338;49.602;8.722;2022-12-20T17:01:36;6.90;99.90
4651;DHT22;2338;49.602;8.722;2022-12-20T17:04:22;6.80;99.90
4651;DHT22;2338;49.602;8.722;2022-12-20T17:07:09;6.80;99.90
4651;DHT22;2338;49.602;8.722;2022-12-20T17:09:54;6.70;99.90
4651;DHT22;2338;49.602;8.722;2022-12-20T17:12:43;6.70;99.90
4651;DHT22;2338;49.602;8.722;2022-12-20T17:15:30;6.70;99.90
4651;DHT22;2338;49.602;8.722;2022-12-20T17:18:16;6.70;99.90
4651;DHT22;2338;49.602;8.722;2022-12-20T17:21:03;6.60;99.90
4651;DHT22;2338;49.602;8.722;2022-12-20T17:23:50;6.60;99.90
4651;DHT22;2338;49.602;8.722;2022-12-20T17:26:36;6.50;99.90
4651;DHT22;2338;49.602;8.722;2022-12-20T17:29:23;6.50;99.90
4651;DHT22;2338;49.602;8.722;2022-12-20T17:32:17;6.50;99.90
4651;DHT22;2338;49.602;8.722;2022-12-20T17:35:04;6.50;99.90
4651;DHT22;2338;49.602;8.722;2022-12-20T17:37:51;6.50;99.90
4651;DHT22;2338;49.602;8.722;2022-12-20T17:40:39;6.50;99.90
4651;DHT22;2338;49.602;8.722;2022-12-20T17:43:24;6.50;99.90
4651;DHT22;2338;49.602;8.722;2022-12-20T17:46:11;6.60;99.90
4651;DHT22;2338;49.602;8.722;2022-12-20T17:48:57;6.50;99.90
4651;DHT22;2338;49.602;8.722;2022-12-20T17:51:45;6.60;99.90
4651;DHT22;2338;49.602;8.722;2022-12-20T17:54:30;6.60;99.90
4651;DHT22;2338;49.602;8.722;2022-12-20T17:57:16;6.60;99.90
4651;DHT22;2338;49.602;8.722;2022-12-20T18:00:02;6.60;99.90
4651;DHT22;2338;49.602;8.722;2022-12-20T18:02:50;6.60;99.90
4651;DHT22;2338;49.602;8.722;2022-12-20T18:05:39;6.70;99.90
4651;DHT22;2338;49.602;8.722;2022-12-20T18:08:24;6.60;99.90
4651;DHT22;2338;49.602;8.722;2022-12-20T18:11:10;6.50;99.90
4651;DHT22;2338;49.602;8.722;2022-12-20T18:13:59;6.50;99.90
4651;DHT22;2338;49.602;8.722;2022-12-20T18:16:44;6.50;99.90
4651;DHT22;2338;49.602;8.722;2022-12-20T18:19:32;6.60;99.90
4651;DHT22;2338;49.602;8.722;2022-12-20T18:22:17;6.50;99.90
4651;DHT22;2338;49.602;8.722;2022-12-20T18:25:04;6.60;99.90
4651;DHT22;2338;49.602;8.722;2022-12-20T18:27:52;6.50;99.90
4651;DHT22;2338;49.602;8.722;2022-12-20T18:30:38;6.50;99.90
4651;DHT22;2338;49.602;8.722;2022-12-20T18:33:24;6.50;99.90
4651;DHT22;2338;49.602;8.722;2022-12-20T18:36:13;6.60;99.90
4651;DHT22;2338;49.602;8.722;2022-12-20T18:39:00;6.60;99.90
4651;DHT22;2338;49.602;8.722;2022-12-20T18:41:46;6.50;99.90
4651;DHT22;2338;49.602;8.722;2022-12-20T18:44:32;6.50;99.90